createdAt,value
2019-01-18T00:00:39.609Z,99.90
2019-01-18T00:03:11.873Z,99.90
2019-01-18T00:05:44.109Z,99.90
2019-01-18T00:08:15.986Z,99.90
2019-01-18T00:10:47.869Z,99.90
2019-01-18T00:13:19.431Z,99.90
2019-01-18T00:15:52.484Z,99.90
2019-01-18T00:18:24.350Z,99.90
2019-01-18T00:20:56.752Z,99.90
2019-01-18T00:23:28.779Z,99.90
2019-01-18T00:26:02.249Z,99.90
2019-01-18T00:28:33.779Z,99.90
2019-01-18T00:31:05.910Z,99.90
2019-01-18T00:33:39.442Z,99.90
2019-01-18T00:36:11.689Z,99.90
2019-01-18T00:38:44.409Z,99.90
2019-01-18T00:41:16.210Z,99.90
2019-01-18T00:43:48.409Z,99.90
2019-01-18T00:46:20.510Z,99.90
2019-01-18T00:48:53.049Z,99.90
2019-01-18T00:51:24.969Z,99.90
2019-01-18T00:53:56.650Z,99.90
2019-01-18T00:56:28.490Z,99.90
2019-01-18T00:59:00.870Z,99.90
2019-01-18T01:01:32.851Z,99.90
2019-01-18T01:04:04.989Z,99.90
2019-01-18T01:06:37.550Z,99.90
2019-01-18T01:09:10.030Z,99.90
2019-01-18T01:11:42.130Z,99.90
2019-01-18T01:14:13.942Z,99.90
2019-01-18T01:16:45.570Z,99.90
2019-01-18T01:19:17.590Z,99.90
2019-01-18T01:21:49.429Z,99.90
2019-01-18T01:24:21.389Z,99.90
2019-01-18T01:26:53.389Z,99.90
2019-01-18T01:29:25.731Z,99.90
2019-01-18T01:31:57.637Z,99.90
2019-01-18T01:34:30.390Z,99.90
2019-01-18T01:37:02.330Z,99.90
2019-01-18T01:39:34.026Z,99.90
2019-01-18T01:42:06.330Z,99.90
2019-01-18T01:44:38.771Z,99.90
2019-01-18T01:47:10.470Z,99.90
2019-01-18T01:49:42.672Z,99.90
2019-01-18T01:52:14.659Z,99.90
2019-01-18T01:54:46.690Z,99.90
2019-01-18T01:57:18.350Z,99.90
2019-01-18T01:59:51.289Z,99.90
2019-01-18T02:02:23.150Z,99.90
2019-01-18T02:04:55.310Z,99.90
2019-01-18T02:07:28.310Z,99.90
2019-01-18T02:10:00.710Z,99.90
2019-01-18T02:12:32.298Z,99.90
2019-01-18T02:15:04.269Z,99.90
2019-01-18T02:17:36.349Z,99.90
2019-01-18T02:20:09.628Z,99.90
2019-01-18T02:22:41.550Z,99.90
2019-01-18T02:25:13.356Z,99.90
2019-01-18T02:27:46.358Z,99.90
2019-01-18T02:30:23.695Z,99.90
2019-01-18T02:32:56.171Z,99.90
2019-01-18T02:35:28.109Z,99.90
2019-01-18T02:38:00.270Z,99.90
2019-01-18T02:40:32.249Z,99.90
2019-01-18T02:43:04.735Z,99.90
2019-01-18T02:45:36.688Z,99.90
2019-01-18T02:48:08.264Z,99.90
2019-01-18T02:50:40.034Z,99.90
2019-01-18T02:53:12.090Z,99.90
2019-01-18T02:55:44.330Z,99.90
2019-01-18T02:58:16.509Z,99.90
2019-01-18T03:04:28.399Z,99.90
2019-01-18T03:07:01.115Z,99.90
2019-01-18T03:09:33.382Z,99.90
2019-01-18T03:12:05.175Z,99.90
2019-01-18T03:14:37.523Z,99.90
2019-01-18T03:17:09.362Z,99.90
2019-01-18T03:19:41.439Z,99.90
2019-01-18T03:22:13.020Z,99.90
2019-01-18T03:24:44.850Z,99.90
2019-01-18T03:27:16.839Z,99.90
2019-01-18T03:29:56.239Z,99.90
2019-01-18T03:32:28.100Z,99.90
2019-01-18T03:34:59.702Z,99.90
2019-01-18T03:37:32.097Z,99.90
2019-01-18T03:40:05.678Z,99.90
2019-01-18T03:42:57.197Z,99.90
2019-01-18T03:45:29.168Z,99.90
2019-01-18T03:48:01.500Z,99.90
2019-01-18T03:50:33.259Z,99.90
2019-01-18T03:53:05.718Z,99.90
2019-01-18T03:55:38.261Z,99.90
2019-01-18T03:58:10.679Z,99.90
2019-01-18T04:00:42.858Z,99.90
2019-01-18T04:03:15.297Z,99.90
2019-01-18T04:05:47.578Z,99.90
2019-01-18T04:08:19.073Z,99.90
2019-01-18T04:10:50.779Z,99.90
2019-01-18T04:13:22.799Z,99.90
2019-01-18T04:15:54.977Z,99.90
2019-01-18T04:18:26.819Z,99.90
2019-01-18T04:20:59.118Z,99.90
2019-01-18T04:23:31.578Z,99.90
2019-01-18T04:26:03.600Z,99.90
2019-01-18T04:28:35.298Z,99.90
2019-01-18T04:31:07.379Z,99.90
2019-01-18T04:33:39.399Z,99.90
2019-01-18T04:36:13.499Z,99.90
2019-01-18T04:38:45.220Z,99.90
2019-01-18T04:41:17.060Z,99.90
2019-01-18T04:43:49.002Z,99.90
2019-01-18T04:46:21.502Z,99.90
2019-01-18T04:48:54.338Z,99.90
2019-01-18T04:51:26.666Z,99.90
2019-01-18T04:53:58.318Z,99.90
2019-01-18T04:56:30.798Z,99.90
2019-01-18T04:59:02.959Z,99.90
2019-01-18T05:01:35.299Z,99.90
2019-01-18T05:04:07.218Z,99.90
2019-01-18T05:06:39.082Z,99.90
2019-01-18T05:09:11.277Z,99.90
2019-01-18T05:11:43.539Z,99.90
2019-01-18T05:14:16.238Z,99.90
2019-01-18T05:16:48.678Z,99.90
2019-01-18T05:19:20.681Z,99.90
2019-01-18T05:21:52.359Z,99.90
2019-01-18T05:24:24.560Z,99.90
2019-01-18T05:26:56.678Z,99.90
2019-01-18T05:29:28.381Z,99.90
2019-01-18T05:32:00.558Z,99.90
2019-01-18T05:34:33.159Z,99.90
2019-01-18T05:37:05.340Z,99.90
2019-01-18T05:39:38.029Z,99.90
2019-01-18T05:42:09.939Z,99.90
2019-01-18T05:44:42.479Z,99.90
2019-01-18T05:47:14.944Z,99.90
2019-01-18T05:49:46.839Z,99.90
2019-01-18T05:52:18.424Z,99.90
2019-01-18T05:54:50.521Z,99.90
2019-01-18T05:57:23.178Z,99.90
2019-01-18T05:59:55.258Z,99.90
2019-01-18T06:02:27.779Z,99.90
2019-01-18T06:05:00.209Z,99.90
2019-01-18T06:07:32.079Z,99.90
2019-01-18T06:10:04.757Z,99.90
2019-01-18T06:12:37.041Z,99.90
2019-01-18T06:15:09.335Z,99.90
2019-01-18T06:17:41.619Z,99.90
2019-01-18T06:20:14.842Z,99.90
2019-01-18T06:22:46.939Z,99.90
2019-01-18T06:25:19.179Z,99.90
2019-01-18T06:27:50.900Z,99.90
2019-01-18T06:30:23.107Z,99.90
2019-01-18T06:32:55.159Z,99.90
2019-01-18T06:35:26.899Z,99.90
2019-01-18T06:37:58.739Z,99.90
2019-01-18T06:40:30.820Z,99.90
2019-01-18T06:43:02.461Z,99.90
2019-01-18T06:45:37.838Z,99.90
2019-01-18T06:48:11.559Z,99.90
2019-01-18T06:50:44.261Z,99.90
2019-01-18T06:53:15.939Z,99.90
2019-01-18T06:55:47.593Z,99.90
2019-01-18T06:58:19.579Z,99.90
2019-01-18T07:00:52.399Z,99.90
2019-01-18T07:03:24.220Z,99.90
2019-01-18T07:05:56.360Z,99.90
2019-01-18T07:08:28.400Z,99.90
2019-01-18T07:10:59.978Z,99.90
2019-01-18T07:13:31.837Z,99.90
2019-01-18T07:16:03.757Z,99.90
2019-01-18T07:18:35.938Z,99.90
2019-01-18T07:21:07.442Z,99.90
2019-01-18T07:23:39.840Z,99.90
2019-01-18T07:26:11.779Z,99.90
2019-01-18T07:28:44.158Z,99.90
2019-01-18T07:31:15.819Z,99.90
2019-01-18T07:33:47.659Z,99.90
2019-01-18T07:36:19.441Z,99.90
2019-01-18T07:38:51.758Z,99.90
2019-01-18T07:41:23.958Z,99.90
2019-01-18T07:43:55.951Z,99.90
2019-01-18T07:46:28.198Z,99.90
2019-01-18T07:49:00.558Z,99.90
2019-01-18T07:51:32.419Z,99.90
2019-01-18T07:54:04.219Z,99.90
2019-01-18T07:56:36.161Z,99.90
2019-01-18T07:59:08.397Z,99.90
2019-01-18T08:01:40.078Z,99.90
2019-01-18T08:04:12.143Z,99.90
2019-01-18T08:06:43.779Z,99.90
2019-01-18T08:09:15.518Z,99.90
2019-01-18T08:11:47.799Z,99.90
2019-01-18T08:14:19.640Z,99.90
2019-01-18T08:16:51.778Z,99.90
2019-01-18T08:19:23.757Z,99.90
2019-01-18T08:21:55.799Z,99.90
2019-01-18T08:24:27.918Z,99.90
2019-01-18T08:26:59.738Z,99.90
2019-01-18T08:29:31.420Z,99.90
2019-01-18T08:32:03.612Z,99.90
2019-01-18T08:34:36.718Z,99.90
2019-01-18T08:37:09.060Z,99.90
2019-01-18T08:39:41.039Z,99.90
2019-01-18T08:42:13.058Z,99.90
2019-01-18T08:44:44.736Z,99.90
2019-01-18T08:47:17.030Z,99.90
2019-01-18T08:49:49.039Z,99.90
2019-01-18T08:52:20.892Z,99.90
2019-01-18T08:54:52.919Z,99.90
2019-01-18T08:57:25.868Z,99.90
2019-01-18T08:59:57.459Z,99.90
2019-01-18T09:02:29.678Z,99.90
2019-01-18T09:05:01.450Z,99.90
2019-01-18T09:07:33.361Z,99.90
2019-01-18T09:10:06.459Z,99.90
2019-01-18T09:12:38.639Z,99.90
2019-01-18T09:15:11.062Z,99.90
2019-01-18T09:17:43.538Z,99.90
2019-01-18T09:20:26.198Z,99.90
2019-01-18T09:22:58.917Z,99.90
2019-01-18T09:25:30.999Z,99.90
2019-01-18T09:28:04.418Z,99.90
2019-01-18T09:30:37.678Z,99.90
2019-01-18T09:33:10.959Z,99.90
2019-01-18T09:35:44.558Z,99.90
2019-01-18T09:38:18.154Z,99.90
2019-01-18T09:40:50.797Z,99.90
2019-01-18T09:43:22.838Z,99.90
2019-01-18T09:45:54.877Z,99.90
2019-01-18T09:48:27.439Z,99.90
2019-01-18T09:50:59.539Z,99.90
2019-01-18T09:53:32.137Z,99.90
2019-01-18T09:56:05.244Z,99.90
2019-01-18T09:58:37.360Z,99.90
2019-01-18T10:01:09.679Z,99.90
2019-01-18T10:03:42.663Z,99.90
2019-01-18T10:06:15.280Z,99.90
2019-01-18T10:08:47.601Z,99.90
2019-01-18T10:11:19.311Z,99.90
2019-01-18T10:13:51.806Z,99.90
2019-01-18T10:16:24.239Z,99.90
2019-01-18T10:18:56.878Z,99.90
2019-01-18T10:21:29.079Z,99.90
2019-01-18T10:24:00.995Z,99.90
2019-01-18T10:26:32.839Z,99.90
2019-01-18T10:29:04.999Z,99.90
2019-01-18T10:31:37.559Z,99.90
2019-01-18T10:34:09.698Z,99.90
2019-01-18T10:36:41.479Z,99.90
2019-01-18T10:39:13.838Z,99.90
2019-01-18T10:41:45.840Z,99.90
2019-01-18T10:44:17.839Z,99.90
2019-01-18T10:46:50.544Z,99.90
2019-01-18T10:49:23.358Z,99.90
2019-01-18T10:51:55.779Z,99.90
2019-01-18T10:54:28.419Z,99.90
2019-01-18T10:57:00.779Z,99.90
2019-01-18T10:59:33.012Z,99.90
2019-01-18T11:02:07.255Z,99.90
2019-01-18T11:04:38.239Z,99.90
2019-01-18T11:07:10.218Z,99.90
2019-01-18T11:09:42.318Z,99.90
2019-01-18T11:12:14.297Z,99.90
2019-01-18T11:14:46.743Z,99.90
2019-01-18T11:17:18.798Z,99.90
2019-01-18T11:19:50.767Z,99.90
2019-01-18T11:22:22.540Z,99.90
2019-01-18T11:24:54.659Z,99.90
2019-01-18T11:27:26.959Z,99.90
2019-01-18T11:29:59.058Z,99.90
2019-01-18T11:32:31.018Z,99.90
2019-01-18T11:35:03.119Z,99.90
2019-01-18T11:37:35.597Z,99.90
2019-01-18T11:40:12.146Z,99.90
2019-01-18T11:42:44.718Z,99.90
2019-01-18T11:45:16.861Z,99.90
2019-01-18T11:47:50.268Z,99.90
2019-01-18T11:50:24.557Z,99.90
2019-01-18T11:52:56.821Z,99.90
2019-01-18T11:55:29.094Z,99.90
2019-01-18T11:58:01.659Z,99.90
2019-01-18T12:00:37.755Z,99.90
2019-01-18T12:03:07.758Z,99.90
2019-01-18T12:05:39.919Z,99.90
2019-01-18T12:08:12.078Z,99.90
2019-01-18T12:10:44.218Z,99.90
2019-01-18T12:13:49.525Z,99.90
2019-01-18T12:16:25.279Z,99.90
2019-01-18T12:18:57.101Z,99.90
2019-01-18T12:21:28.739Z,99.90
2019-01-18T12:24:00.659Z,99.90
2019-01-18T12:26:32.591Z,99.90
2019-01-18T12:29:04.879Z,99.90
2019-01-18T12:31:38.480Z,99.90
2019-01-18T12:34:10.798Z,99.90
2019-01-18T12:36:43.678Z,99.90
2019-01-18T12:39:15.680Z,99.90
2019-01-18T12:41:47.478Z,95.40
2019-01-18T12:44:19.938Z,90.90
2019-01-18T12:46:52.758Z,85.30
2019-01-18T12:49:25.059Z,83.30
2019-01-18T12:51:57.843Z,80.20
2019-01-18T12:54:30.318Z,75.90
2019-01-18T12:57:02.679Z,71.70
2019-01-18T12:59:34.978Z,70.40
2019-01-18T13:02:25.822Z,69.00
2019-01-18T13:04:57.646Z,69.30
2019-01-18T13:07:29.898Z,69.20
2019-01-18T13:10:02.138Z,67.40
2019-01-18T13:12:34.160Z,66.10
2019-01-18T13:15:09.541Z,64.40
2019-01-18T13:17:42.138Z,64.40
2019-01-18T13:20:15.279Z,62.90
2019-01-18T13:22:47.145Z,63.00
2019-01-18T13:25:19.063Z,62.20
2019-01-18T13:27:50.981Z,62.60
2019-01-18T13:30:24.303Z,62.10
2019-01-18T13:32:57.079Z,60.80
2019-01-18T13:35:29.099Z,61.00
2019-01-18T13:38:00.733Z,60.90
2019-01-18T13:40:32.598Z,61.90
2019-01-18T13:43:05.838Z,63.60
2019-01-18T13:45:37.787Z,67.30
2019-01-18T13:48:10.978Z,73.40
2019-01-18T13:50:42.918Z,84.40
2019-01-18T13:53:15.261Z,93.70
2019-01-18T13:55:46.938Z,99.90
2019-01-18T13:58:19.159Z,99.90
2019-01-18T14:00:51.438Z,99.90
2019-01-18T14:03:23.418Z,99.90
2019-01-18T14:05:55.445Z,99.90
2019-01-18T14:08:28.031Z,99.90
2019-01-18T14:11:01.236Z,99.90
2019-01-18T14:13:37.407Z,99.90
2019-01-18T14:16:07.464Z,99.90
2019-01-18T14:18:39.838Z,99.90
2019-01-18T14:21:12.997Z,99.90
2019-01-18T14:23:45.659Z,99.90
2019-01-18T14:26:18.318Z,99.90
2019-01-18T14:28:51.158Z,99.90
2019-01-18T14:31:23.151Z,99.90
2019-01-18T14:33:55.190Z,99.90
2019-01-18T14:36:27.332Z,99.90
2019-01-18T14:38:59.122Z,99.90
2019-01-18T14:41:31.338Z,99.90
2019-01-18T14:44:03.909Z,99.90
2019-01-18T14:46:35.772Z,99.90
2019-01-18T14:49:08.597Z,99.90
2019-01-18T14:51:41.078Z,99.90
2019-01-18T14:54:13.361Z,99.90
2019-01-18T14:56:45.344Z,99.90
2019-01-18T14:59:17.541Z,99.90
2019-01-18T15:01:49.345Z,99.90
2019-01-18T15:04:21.559Z,99.90
2019-01-18T15:06:53.399Z,99.90
2019-01-18T15:09:26.198Z,99.90
2019-01-18T15:11:57.826Z,99.90
2019-01-18T15:14:30.080Z,99.90
2019-01-18T15:17:02.139Z,99.90
2019-01-18T15:19:35.918Z,99.90
2019-01-18T15:22:07.818Z,99.90
2019-01-18T15:24:39.926Z,99.90
2019-01-18T15:27:11.939Z,99.90
2019-01-18T15:29:43.901Z,99.90
2019-01-18T15:32:16.279Z,99.90
2019-01-18T15:34:48.498Z,99.90
2019-01-18T15:37:20.744Z,99.90
2019-01-18T15:39:53.178Z,99.90
2019-01-18T15:42:25.360Z,99.90
2019-01-18T15:44:58.020Z,99.90
2019-01-18T15:47:30.118Z,99.90
2019-01-18T15:50:02.619Z,99.90
2019-01-18T15:52:34.801Z,99.90
2019-01-18T15:55:09.080Z,99.90
2019-01-18T15:57:41.998Z,99.90
2019-01-18T16:00:18.258Z,99.90
2019-01-18T16:02:50.200Z,99.90
2019-01-18T16:05:22.191Z,99.90
2019-01-18T16:07:54.380Z,99.90
2019-01-18T16:10:26.822Z,99.90
2019-01-18T16:12:59.481Z,99.90
2019-01-18T16:15:58.658Z,99.90
2019-01-18T16:18:30.638Z,99.90
2019-01-18T16:21:02.725Z,99.90
2019-01-18T16:23:34.783Z,99.90
2019-01-18T16:26:07.259Z,99.90
2019-01-18T16:28:38.857Z,99.90
2019-01-18T16:31:11.321Z,99.90
2019-01-18T16:33:43.685Z,99.90
2019-01-18T16:36:16.258Z,99.90
2019-01-18T16:38:48.565Z,99.90
2019-01-18T16:41:20.637Z,99.90
2019-01-18T16:43:52.918Z,99.90
2019-01-18T16:46:25.677Z,99.90
2019-01-18T16:48:57.658Z,99.90
2019-01-18T16:51:29.433Z,99.90
2019-01-18T16:54:01.838Z,99.90
2019-01-18T16:56:33.520Z,99.90
2019-01-18T16:59:05.838Z,99.90
2019-01-18T17:01:38.638Z,99.90
2019-01-18T17:04:10.638Z,99.90
2019-01-18T17:06:42.707Z,99.90
2019-01-18T17:09:15.005Z,99.90
2019-01-18T17:11:46.957Z,99.90
2019-01-18T17:14:18.598Z,99.90
2019-01-18T17:16:50.938Z,99.90
2019-01-18T17:19:24.888Z,99.90
2019-01-18T17:21:56.561Z,99.90
2019-01-18T17:24:28.758Z,99.90
2019-01-18T17:27:00.639Z,99.90
2019-01-18T17:29:32.419Z,99.90
2019-01-18T17:32:04.420Z,99.90
2019-01-18T17:34:36.559Z,99.90
2019-01-18T17:37:13.200Z,99.90
2019-01-18T17:40:36.198Z,99.90
2019-01-18T17:43:47.653Z,99.90
2019-01-18T17:46:58.800Z,99.90
2019-01-18T17:50:13.381Z,99.90
2019-01-18T17:53:25.881Z,99.90
2019-01-18T17:56:38.497Z,99.90
2019-01-18T17:59:46.131Z,99.90
2019-01-18T18:02:41.538Z,99.90
2019-01-18T18:05:46.377Z,99.90
2019-01-18T18:08:49.518Z,99.90
2019-01-18T18:12:05.645Z,99.90
2019-01-18T18:15:22.479Z,99.90
2019-01-18T18:18:16.724Z,99.90
2019-01-18T18:21:33.399Z,99.90
2019-01-18T18:24:45.357Z,99.90
2019-01-18T18:28:00.134Z,99.90
2019-01-18T18:30:57.315Z,99.90
2019-01-18T18:34:05.498Z,99.90
2019-01-18T18:37:02.159Z,99.90
2019-01-18T18:40:17.859Z,99.90
2019-01-18T18:43:49.059Z,99.90
2019-01-18T18:47:00.298Z,99.90
2019-01-18T18:50:05.119Z,99.90
2019-01-18T18:53:36.258Z,99.90
2019-01-18T18:56:52.427Z,99.90
2019-01-18T18:59:34.639Z,99.90
2019-01-18T19:02:30.600Z,99.90
2019-01-18T19:05:54.450Z,99.90
2019-01-18T19:08:46.402Z,99.90
2019-01-18T19:12:05.200Z,99.90
2019-01-18T19:15:14.956Z,99.90
2019-01-18T19:18:21.538Z,99.90
2019-01-18T19:21:11.100Z,99.90
2019-01-18T19:24:28.419Z,99.90
2019-01-18T19:27:39.881Z,99.90
2019-01-18T19:30:45.359Z,99.90
2019-01-18T19:33:26.478Z,99.90
2019-01-18T19:36:38.698Z,99.90
2019-01-18T19:39:54.516Z,99.90
2019-01-18T19:43:22.486Z,99.90
2019-01-18T19:46:37.138Z,99.90
2019-01-18T19:50:03.119Z,99.90
2019-01-18T19:53:17.559Z,99.90
2019-01-18T19:56:33.039Z,99.90
2019-01-18T19:59:45.331Z,99.90
2019-01-18T20:02:51.305Z,99.90
2019-01-18T20:06:06.038Z,99.90
2019-01-18T20:09:17.838Z,99.90
2019-01-18T20:12:19.578Z,99.90
2019-01-18T20:15:31.373Z,99.90
2019-01-18T20:19:02.478Z,99.90
2019-01-18T20:22:05.860Z,99.90
2019-01-18T20:25:08.738Z,99.90
2019-01-18T20:28:25.462Z,99.90
2019-01-18T20:31:25.080Z,99.90
2019-01-18T20:34:36.814Z,99.90
2019-01-18T20:37:34.353Z,99.90
2019-01-18T20:40:30.039Z,99.90
2019-01-18T20:43:46.040Z,99.90
2019-01-18T20:46:43.556Z,99.90
2019-01-18T20:50:05.698Z,99.90
2019-01-18T20:53:24.539Z,99.90
2019-01-18T20:56:20.439Z,99.90
2019-01-18T20:59:10.440Z,99.90
2019-01-18T21:02:18.485Z,99.90
2019-01-18T21:05:28.698Z,99.90
2019-01-18T21:08:36.439Z,99.90
2019-01-18T21:11:49.818Z,99.90
2019-01-18T21:15:00.000Z,99.90
2019-01-18T21:18:14.477Z,99.90
2019-01-18T21:21:33.328Z,99.90
2019-01-18T21:24:44.886Z,99.90
2019-01-18T21:27:33.742Z,99.90
2019-01-18T21:30:58.739Z,99.90
2019-01-18T21:34:18.859Z,99.90
2019-01-18T21:37:38.120Z,99.90
2019-01-18T21:40:57.276Z,99.90
2019-01-18T21:44:16.180Z,99.90
2019-01-18T21:47:44.538Z,99.90
2019-01-18T21:51:11.268Z,99.90
2019-01-18T21:53:51.713Z,99.90
2019-01-18T21:57:10.581Z,99.90
2019-01-18T22:00:15.958Z,99.90
2019-01-18T22:03:32.383Z,99.90
2019-01-18T22:06:59.759Z,99.90
2019-01-18T22:09:50.958Z,99.90
2019-01-18T22:13:06.438Z,99.90
2019-01-18T22:16:16.961Z,99.90
2019-01-18T22:19:45.527Z,99.90
2019-01-18T22:23:01.778Z,99.90
2019-01-18T22:26:15.279Z,99.90
2019-01-18T22:29:31.760Z,99.90
2019-01-18T22:32:33.699Z,99.90
2019-01-18T22:36:05.059Z,99.90
2019-01-18T22:39:30.546Z,99.90
2019-01-18T22:42:53.178Z,99.90
2019-01-18T22:45:58.465Z,99.90
2019-01-18T22:48:59.757Z,99.90
2019-01-18T22:52:24.598Z,99.90
2019-01-18T22:55:15.779Z,99.90
2019-01-18T22:58:46.039Z,99.90
2019-01-18T23:01:55.619Z,99.90
2019-01-18T23:05:04.177Z,99.90
2019-01-18T23:08:15.459Z,99.90
2019-01-18T23:11:21.540Z,99.90
2019-01-18T23:14:26.038Z,99.90
2019-01-18T23:17:26.898Z,99.90
2019-01-18T23:20:39.819Z,99.90
2019-01-18T23:23:29.258Z,99.90
2019-01-18T23:26:49.837Z,99.90
2019-01-18T23:30:01.392Z,99.90
2019-01-18T23:33:04.580Z,99.90
2019-01-18T23:36:11.118Z,99.90
2019-01-18T23:39:29.838Z,99.90
2019-01-18T23:42:25.618Z,99.90
2019-01-18T23:45:44.079Z,99.90
2019-01-18T23:48:52.297Z,99.90
2019-01-18T23:51:58.323Z,99.90
2019-01-18T23:55:07.759Z,99.90
2019-01-18T23:58:26.819Z,99.90
